> <
  • 1
  • 2

Novidades

  • Temos o prazer de lhe apresentar… Ler mais +
  • Está disponível a secção Multimédia no… Ler mais +
  • 1
[source: ADDS]
METAR
LPPR 251500Z 28005KT 230V310 CAVOK 20/15 Q1014 =
TAF
TAF LPPR 251100Z 2512/2612 27008KT 9999 FEW030 PROB30 TEMPO 2514/2519 8000 SHRA BKN030 BECMG 2518/2520 VRB03KT BECMG 2522/2524 20005KT 3000 BR SCT002 PROB30 TEMPO 2600/2607 0300 FG VV001 BECMG 2608/2611 26007KT 9999 NSW BKN025 =

contactos